createdAt,value
2023-05-09T00:00:45.535Z,60.84
2023-05-09T00:03:12.823Z,61.22
2023-05-09T00:05:39.784Z,61.00
2023-05-09T00:08:06.773Z,60.92
2023-05-09T00:10:33.310Z,60.96
2023-05-09T00:13:00.909Z,60.85
2023-05-09T00:15:28.851Z,60.67
2023-05-09T00:17:55.486Z,60.73
2023-05-09T00:20:22.222Z,60.84
2023-05-09T00:22:48.748Z,60.86
2023-05-09T00:25:15.608Z,60.66
2023-05-09T00:27:42.366Z,60.56
2023-05-09T00:30:09.197Z,60.66
2023-05-09T00:32:36.119Z,60.72
2023-05-09T00:35:03.122Z,60.82
2023-05-09T00:37:31.270Z,61.26
2023-05-09T00:39:57.922Z,61.48
2023-05-09T00:42:24.740Z,61.48
2023-05-09T00:44:51.363Z,61.22
2023-05-09T00:47:18.033Z,61.01
2023-05-09T00:49:44.759Z,60.75
2023-05-09T00:52:11.402Z,60.65
2023-05-09T00:54:38.135Z,60.58
2023-05-09T00:57:04.737Z,61.03
2023-05-09T00:59:31.337Z,61.18
2023-05-09T01:01:58.167Z,61.29
2023-05-09T01:04:24.878Z,61.46
2023-05-09T01:07:02.902Z,61.71
2023-05-09T01:09:43.081Z,61.95
2023-05-09T01:12:49.902Z,61.88
2023-05-09T01:15:45.971Z,62.09
2023-05-09T01:18:26.190Z,61.94
2023-05-09T01:21:03.612Z,61.47
2023-05-09T01:23:45.284Z,61.24
2023-05-09T01:26:34.880Z,60.90
2023-05-09T01:29:40.303Z,61.38
2023-05-09T01:32:15.622Z,61.91
2023-05-09T01:34:44.699Z,61.57
2023-05-09T01:37:14.649Z,61.62
2023-05-09T01:39:49.164Z,61.71
2023-05-09T01:42:18.821Z,61.44
2023-05-09T01:44:47.192Z,61.57
2023-05-09T01:47:16.496Z,61.78
2023-05-09T01:49:44.470Z,61.91
2023-05-09T01:52:16.693Z,62.01
2023-05-09T01:54:48.132Z,62.48
2023-05-09T01:57:15.479Z,62.40
2023-05-09T01:59:45.192Z,62.55
2023-05-09T02:02:12.788Z,62.76
2023-05-09T02:04:43.194Z,62.65
2023-05-09T02:07:11.788Z,62.34
2023-05-09T02:09:38.418Z,62.00
2023-05-09T02:12:05.204Z,62.08
2023-05-09T02:14:32.261Z,62.55
2023-05-09T02:17:06.937Z,63.09
2023-05-09T02:19:35.596Z,63.70
2023-05-09T02:22:04.811Z,63.99
2023-05-09T02:24:33.680Z,63.90
2023-05-09T02:27:03.247Z,63.51
2023-05-09T02:29:32.111Z,63.16
2023-05-09T02:32:01.508Z,63.54
2023-05-09T02:34:28.348Z,63.68
2023-05-09T02:36:55.825Z,63.58
2023-05-09T02:39:22.965Z,63.52
2023-05-09T02:41:49.832Z,63.59
2023-05-09T02:44:16.430Z,63.74
2023-05-09T02:46:42.941Z,63.53
2023-05-09T02:49:11.403Z,63.44
2023-05-09T02:51:43.548Z,63.36
2023-05-09T02:54:10.084Z,63.14
2023-05-09T02:56:36.668Z,62.99
2023-05-09T02:59:03.198Z,62.78
2023-05-09T03:01:29.824Z,62.67
2023-05-09T03:03:56.409Z,62.78
2023-05-09T03:06:23.606Z,62.55
2023-05-09T03:08:50.136Z,62.29
2023-05-09T03:11:17.201Z,62.21
2023-05-09T03:13:45.669Z,62.21
2023-05-09T03:16:15.085Z,62.16
2023-05-09T03:18:42.140Z,61.92
2023-05-09T03:21:09.927Z,61.72
2023-05-09T03:23:36.956Z,61.45
2023-05-09T03:26:06.049Z,61.27
2023-05-09T03:28:32.963Z,61.01
2023-05-09T03:31:01.681Z,60.71
2023-05-09T03:33:28.963Z,60.62
2023-05-09T03:35:55.597Z,60.53
2023-05-09T03:38:24.368Z,60.56
2023-05-09T03:40:51.440Z,60.43
2023-05-09T03:43:18.041Z,60.38
2023-05-09T03:45:44.728Z,60.50
2023-05-09T03:48:12.039Z,60.43
2023-05-09T03:50:43.468Z,60.41
2023-05-09T03:53:10.697Z,60.19
2023-05-09T03:55:37.593Z,59.67
2023-05-09T03:58:04.501Z,58.37
2023-05-09T04:00:31.516Z,59.44
2023-05-09T04:03:03.956Z,59.64
2023-05-09T04:05:35.606Z,63.59
2023-05-09T04:08:03.565Z,65.80
2023-05-09T04:10:32.049Z,64.77
2023-05-09T04:12:58.963Z,63.32
2023-05-09T04:15:25.679Z,61.85
2023-05-09T04:17:52.271Z,60.85
2023-05-09T04:20:19.009Z,60.40
2023-05-09T04:22:47.071Z,59.70
2023-05-09T04:25:16.119Z,57.72
2023-05-09T04:27:42.954Z,57.58
2023-05-09T04:30:10.437Z,59.60
2023-05-09T04:32:37.244Z,63.07
2023-05-09T04:35:05.056Z,63.53
2023-05-09T04:37:33.826Z,61.55
2023-05-09T04:40:01.544Z,59.21
2023-05-09T04:42:35.116Z,59.21
2023-05-09T04:45:02.071Z,63.35
2023-05-09T04:47:29.116Z,64.78
2023-05-09T04:49:55.678Z,64.00
2023-05-09T04:52:22.245Z,61.32
2023-05-09T04:54:48.932Z,58.01
2023-05-09T04:57:18.823Z,56.24
2023-05-09T04:59:50.539Z,58.46
2023-05-09T05:02:18.052Z,59.93
2023-05-09T05:04:47.623Z,61.44
2023-05-09T05:07:15.020Z,62.54
2023-05-09T05:09:43.467Z,62.98
2023-05-09T05:12:10.748Z,61.27
2023-05-09T05:14:38.333Z,58.80
2023-05-09T05:17:05.546Z,58.27
2023-05-09T05:19:32.189Z,59.59
2023-05-09T05:21:58.954Z,60.50
2023-05-09T05:24:28.052Z,59.27
2023-05-09T05:26:55.563Z,59.30
2023-05-09T05:29:22.330Z,59.18
2023-05-09T05:31:48.970Z,59.25
2023-05-09T05:34:16.783Z,59.48
2023-05-09T05:36:44.073Z,58.44
2023-05-09T05:39:10.874Z,56.49
2023-05-09T05:41:37.409Z,56.91
2023-05-09T05:44:05.082Z,56.64
2023-05-09T05:46:32.475Z,56.54
2023-05-09T05:48:59.577Z,56.19
2023-05-09T05:51:26.965Z,54.98
2023-05-09T05:53:53.494Z,56.28
2023-05-09T05:56:20.692Z,56.02
2023-05-09T05:58:47.399Z,56.26
2023-05-09T06:01:14.589Z,54.70
2023-05-09T06:03:41.231Z,54.78
2023-05-09T06:06:09.465Z,55.37
2023-05-09T06:08:36.024Z,53.98
2023-05-09T06:11:02.951Z,54.08
2023-05-09T06:13:29.550Z,54.25
2023-05-09T06:16:14.968Z,53.43
2023-05-09T06:18:48.025Z,52.86
2023-05-09T06:21:14.605Z,50.38
2023-05-09T06:23:56.869Z,50.29
2023-05-09T06:26:27.627Z,50.25
2023-05-09T06:28:54.151Z,47.74
2023-05-09T06:31:21.136Z,45.57
2023-05-09T06:33:48.542Z,42.75
2023-05-09T06:36:15.327Z,43.26
2023-05-09T06:38:41.857Z,41.35
2023-05-09T06:41:08.382Z,41.31
2023-05-09T06:43:34.910Z,40.93
2023-05-09T06:46:02.439Z,39.37
2023-05-09T06:48:28.971Z,33.71
2023-05-09T06:50:55.591Z,31.97
2023-05-09T06:53:22.608Z,29.43
2023-05-09T06:55:49.349Z,26.49
2023-05-09T06:58:16.079Z,25.80
2023-05-09T07:00:42.750Z,24.48
2023-05-09T07:03:10.577Z,24.17
2023-05-09T07:05:37.207Z,19.43
2023-05-09T07:08:04.180Z,18.24
2023-05-09T07:10:31.192Z,18.71
2023-05-09T07:12:58.106Z,19.29
2023-05-09T07:15:39.742Z,20.08
2023-05-09T07:18:08.119Z,19.78
2023-05-09T07:20:34.957Z,19.85
2023-05-09T07:23:04.092Z,18.42
2023-05-09T07:25:34.535Z,18.83
2023-05-09T07:28:01.112Z,16.70
2023-05-09T07:30:27.918Z,15.56
2023-05-09T07:32:54.562Z,17.66
2023-05-09T07:35:21.773Z,16.02
2023-05-09T07:37:48.505Z,16.17
2023-05-09T07:40:15.625Z,15.58
2023-05-09T07:42:49.915Z,14.80
2023-05-09T07:45:17.524Z,15.31
2023-05-09T07:47:45.007Z,16.24
2023-05-09T07:50:11.564Z,14.89
2023-05-09T07:52:38.243Z,14.97
2023-05-09T07:55:05.483Z,15.17
2023-05-09T07:57:32.305Z,15.28
2023-05-09T07:59:58.892Z,14.04
2023-05-09T08:02:25.720Z,12.85
2023-05-09T08:04:52.484Z,12.53
2023-05-09T08:07:19.049Z,13.21
2023-05-09T08:09:45.827Z,13.51
2023-05-09T08:12:12.735Z,14.56
2023-05-09T08:14:39.422Z,15.42
2023-05-09T08:17:06.122Z,14.99
2023-05-09T08:19:32.701Z,14.36
2023-05-09T08:21:59.507Z,14.09
2023-05-09T08:24:26.511Z,13.38
2023-05-09T08:26:53.097Z,13.90
2023-05-09T08:29:19.692Z,13.85
2023-05-09T08:31:46.365Z,12.44
2023-05-09T08:34:13.002Z,13.02
2023-05-09T08:36:41.008Z,13.35
2023-05-09T08:39:08.753Z,13.98
2023-05-09T08:41:36.242Z,13.41
2023-05-09T08:44:04.176Z,13.78
2023-05-09T08:46:41.878Z,14.05
2023-05-09T08:49:09.340Z,14.89
2023-05-09T08:51:37.147Z,15.35
2023-05-09T08:54:04.331Z,15.39
2023-05-09T08:56:31.640Z,14.33
2023-05-09T08:58:59.068Z,13.94
2023-05-09T09:01:27.024Z,13.47
2023-05-09T09:03:54.242Z,14.08
2023-05-09T09:06:23.434Z,14.23
2023-05-09T09:08:50.576Z,14.49
2023-05-09T09:11:18.677Z,13.72
2023-05-09T09:13:46.965Z,13.69
2023-05-09T09:16:20.622Z,13.42
2023-05-09T09:18:48.271Z,13.60
2023-05-09T09:21:19.308Z,13.53
2023-05-09T09:23:47.665Z,13.19
2023-05-09T09:26:14.997Z,13.24
2023-05-09T09:28:42.663Z,13.61
2023-05-09T09:31:26.292Z,13.66
2023-05-09T09:33:59.488Z,13.81
2023-05-09T09:36:28.117Z,14.48
2023-05-09T09:39:04.769Z,14.23
2023-05-09T09:41:31.866Z,14.63
2023-05-09T09:43:58.925Z,13.83
2023-05-09T09:46:26.154Z,14.52
2023-05-09T09:48:56.833Z,14.23
2023-05-09T09:51:27.652Z,13.76
2023-05-09T09:53:56.964Z,14.17
2023-05-09T09:56:45.730Z,13.41
2023-05-09T09:59:17.437Z,13.15
2023-05-09T10:02:07.840Z,12.07
2023-05-09T10:04:37.034Z,12.65
2023-05-09T10:07:06.339Z,12.06
2023-05-09T10:09:34.308Z,10.98
2023-05-09T10:12:06.484Z,11.62
2023-05-09T10:14:35.812Z,13.04
2023-05-09T10:17:05.444Z,13.69
2023-05-09T10:19:32.957Z,14.07
2023-05-09T10:22:05.315Z,14.68
2023-05-09T10:24:42.184Z,15.69
2023-05-09T10:27:13.060Z,15.55
2023-05-09T10:29:46.469Z,15.57
2023-05-09T10:32:28.071Z,15.02
2023-05-09T10:35:05.857Z,15.39
2023-05-09T10:37:33.704Z,14.54
2023-05-09T10:40:05.117Z,14.36
2023-05-09T10:42:32.116Z,15.16
2023-05-09T10:44:58.661Z,15.40
2023-05-09T10:47:29.717Z,15.21
2023-05-09T10:49:57.741Z,15.01
2023-05-09T10:52:24.333Z,15.14
2023-05-09T10:55:02.028Z,15.00
2023-05-09T10:57:30.368Z,13.80
2023-05-09T10:59:58.714Z,13.96
2023-05-09T11:02:33.969Z,14.32
2023-05-09T11:05:17.573Z,14.46
2023-05-09T11:07:44.308Z,13.85
2023-05-09T11:10:15.189Z,15.29
2023-05-09T11:12:59.500Z,14.78
2023-05-09T11:15:27.911Z,15.52
2023-05-09T11:18:11.021Z,14.89
2023-05-09T11:20:46.463Z,14.46
2023-05-09T11:23:17.548Z,15.63
2023-05-09T11:25:47.757Z,15.08
2023-05-09T11:28:28.815Z,16.02
2023-05-09T11:31:10.062Z,15.59
2023-05-09T11:33:38.125Z,15.52
2023-05-09T11:36:38.601Z,15.28
2023-05-09T11:39:05.494Z,15.40
2023-05-09T11:41:39.528Z,15.13
2023-05-09T11:44:20.547Z,15.41
2023-05-09T11:46:49.270Z,16.00
2023-05-09T11:49:17.394Z,16.40
2023-05-09T11:51:44.244Z,16.32
2023-05-09T11:54:12.399Z,16.18
2023-05-09T11:56:41.811Z,15.72
2023-05-09T11:59:10.692Z,16.31
2023-05-09T12:01:37.757Z,16.82
2023-05-09T12:04:07.367Z,16.99
2023-05-09T12:06:34.309Z,17.08
2023-05-09T12:09:00.956Z,16.67
2023-05-09T12:11:32.400Z,16.32
2023-05-09T12:13:59.345Z,16.15
2023-05-09T12:16:26.144Z,15.74
2023-05-09T12:18:53.205Z,15.33
2023-05-09T12:21:20.478Z,15.91
2023-05-09T12:23:50.688Z,15.27
2023-05-09T12:26:18.296Z,14.33
2023-05-09T12:28:45.922Z,14.47
2023-05-09T12:31:13.241Z,15.34
2023-05-09T12:33:40.607Z,15.85
2023-05-09T12:36:09.677Z,15.77
2023-05-09T12:38:37.532Z,16.18
2023-05-09T12:41:18.203Z,16.46
2023-05-09T12:43:50.220Z,16.28
2023-05-09T12:46:21.279Z,17.45
2023-05-09T12:48:49.499Z,18.14
2023-05-09T12:51:20.932Z,18.55
2023-05-09T12:53:47.785Z,18.05
2023-05-09T12:56:17.689Z,18.22
2023-05-09T12:58:51.366Z,18.13
2023-05-09T13:01:19.714Z,18.27
2023-05-09T13:03:52.099Z,18.76
2023-05-09T13:06:19.130Z,18.31
2023-05-09T13:08:59.280Z,18.11
2023-05-09T13:11:25.864Z,18.18
2023-05-09T13:13:54.539Z,18.88
2023-05-09T13:16:21.237Z,18.72
2023-05-09T13:18:48.351Z,19.70
2023-05-09T13:21:14.840Z,19.88
2023-05-09T13:23:42.336Z,20.40
2023-05-09T13:26:10.476Z,20.68
2023-05-09T13:28:37.092Z,21.21
2023-05-09T13:31:04.119Z,21.14
2023-05-09T13:33:30.848Z,21.06
2023-05-09T13:35:57.650Z,20.60
2023-05-09T13:38:24.377Z,20.47
2023-05-09T13:40:51.667Z,20.54
2023-05-09T13:43:18.370Z,20.97
2023-05-09T13:45:45.142Z,20.98
2023-05-09T13:48:11.953Z,21.66
2023-05-09T13:50:38.749Z,22.16
2023-05-09T13:53:05.563Z,22.53
2023-05-09T13:55:32.646Z,22.70
2023-05-09T13:57:59.240Z,23.43
2023-05-09T14:00:26.693Z,23.33
2023-05-09T14:02:53.660Z,24.03
2023-05-09T14:05:20.250Z,23.25
2023-05-09T14:07:47.646Z,23.06
2023-05-09T14:10:14.405Z,22.62
2023-05-09T14:12:44.156Z,22.73
2023-05-09T14:15:11.180Z,23.46
2023-05-09T14:17:37.968Z,24.31
2023-05-09T14:20:05.119Z,25.03
2023-05-09T14:22:31.738Z,26.21
2023-05-09T14:24:58.788Z,25.73
2023-05-09T14:27:26.299Z,25.14
2023-05-09T14:29:53.277Z,25.41
2023-05-09T14:32:19.835Z,25.53
2023-05-09T14:34:49.469Z,25.32
2023-05-09T14:37:16.898Z,26.30
2023-05-09T14:39:45.338Z,26.51
2023-05-09T14:42:14.032Z,26.99
2023-05-09T14:44:41.325Z,26.56
2023-05-09T14:47:09.478Z,26.91
2023-05-09T14:49:38.753Z,27.13
2023-05-09T14:52:05.927Z,27.22
2023-05-09T14:54:32.675Z,27.49
2023-05-09T14:56:59.621Z,26.48
2023-05-09T14:59:26.329Z,27.09
2023-05-09T15:01:52.987Z,27.65
2023-05-09T15:04:19.817Z,29.27
2023-05-09T15:06:46.420Z,28.95
2023-05-09T15:09:13.873Z,28.77
2023-05-09T15:11:47.507Z,27.67
2023-05-09T15:14:16.830Z,28.09
2023-05-09T15:16:44.138Z,28.32
2023-05-09T15:19:11.045Z,29.98
2023-05-09T15:21:37.695Z,28.78
2023-05-09T15:24:04.904Z,28.16
2023-05-09T15:26:32.088Z,28.95
2023-05-09T15:28:58.757Z,29.18
2023-05-09T15:31:25.955Z,29.19
2023-05-09T15:33:52.616Z,29.43
2023-05-09T15:36:19.419Z,28.99
2023-05-09T15:38:49.440Z,29.86
2023-05-09T15:41:16.766Z,29.35
2023-05-09T15:43:43.678Z,27.86
2023-05-09T15:46:10.599Z,28.88
2023-05-09T15:48:37.436Z,29.47
2023-05-09T15:51:04.265Z,29.28
2023-05-09T15:53:31.164Z,29.70
2023-05-09T15:55:57.887Z,29.59
2023-05-09T15:58:24.475Z,29.25
2023-05-09T16:00:51.198Z,29.64
2023-05-09T16:03:18.740Z,29.90
2023-05-09T16:05:45.605Z,29.66
2023-05-09T16:08:12.615Z,30.30
2023-05-09T16:10:39.220Z,30.53
2023-05-09T16:13:05.901Z,30.20
2023-05-09T16:15:32.899Z,29.41
2023-05-09T16:17:59.535Z,29.72
2023-05-09T16:20:26.168Z,30.20
2023-05-09T16:22:52.666Z,30.39
2023-05-09T16:25:19.452Z,30.94
2023-05-09T16:27:46.137Z,30.45
2023-05-09T16:30:13.742Z,30.53
2023-05-09T16:32:40.721Z,30.77
2023-05-09T16:35:07.995Z,30.71
2023-05-09T16:37:35.662Z,30.89
2023-05-09T16:40:02.855Z,31.21
2023-05-09T16:42:29.861Z,31.56
2023-05-09T16:44:57.522Z,32.02
2023-05-09T16:47:24.154Z,31.55
2023-05-09T16:49:50.959Z,30.99
2023-05-09T16:52:17.686Z,31.29
2023-05-09T16:54:44.185Z,31.72
2023-05-09T16:57:10.850Z,31.52
2023-05-09T16:59:37.794Z,31.34
2023-05-09T17:02:04.572Z,31.49
2023-05-09T17:04:31.605Z,31.51
2023-05-09T17:06:58.412Z,32.07
2023-05-09T17:09:25.397Z,32.45
2023-05-09T17:11:52.106Z,32.48
2023-05-09T17:14:18.899Z,32.60
2023-05-09T17:16:45.632Z,32.35
2023-05-09T17:19:12.420Z,32.25
2023-05-09T17:21:41.771Z,32.88
2023-05-09T17:24:09.563Z,32.91
2023-05-09T17:26:36.241Z,32.97
2023-05-09T17:29:03.802Z,32.99
2023-05-09T17:31:31.432Z,33.18
2023-05-09T17:33:58.083Z,33.56
2023-05-09T17:36:25.776Z,34.23
2023-05-09T17:38:52.919Z,33.92
2023-05-09T17:41:19.685Z,34.04
2023-05-09T17:43:46.431Z,34.24
2023-05-09T17:46:14.848Z,34.52
2023-05-09T17:48:42.109Z,34.79
2023-05-09T17:51:09.124Z,34.57
2023-05-09T17:53:35.759Z,35.03
2023-05-09T17:56:02.439Z,35.57
2023-05-09T17:58:29.939Z,35.40
2023-05-09T18:00:58.720Z,35.49
2023-05-09T18:03:29.122Z,36.46
2023-05-09T18:05:55.982Z,36.07
2023-05-09T18:08:22.644Z,36.29
2023-05-09T18:10:49.797Z,36.60
2023-05-09T18:13:17.184Z,37.32
2023-05-09T18:15:43.967Z,37.90
2023-05-09T18:18:12.904Z,38.25
2023-05-09T18:20:42.134Z,38.53
2023-05-09T18:23:08.716Z,38.65
2023-05-09T18:25:35.309Z,39.23
2023-05-09T18:28:01.842Z,40.52
2023-05-09T18:30:28.896Z,40.08
2023-05-09T18:32:59.991Z,40.04
2023-05-09T18:35:26.789Z,40.41
2023-05-09T18:37:53.777Z,41.12
2023-05-09T18:40:20.385Z,41.34
2023-05-09T18:42:47.290Z,41.73
2023-05-09T18:45:14.100Z,41.34
2023-05-09T18:47:40.740Z,42.08
2023-05-09T18:50:08.110Z,42.49
2023-05-09T18:52:35.023Z,42.75
2023-05-09T18:55:01.684Z,43.26
2023-05-09T18:57:28.342Z,43.79
2023-05-09T18:59:56.001Z,44.47
2023-05-09T19:02:23.614Z,44.23
2023-05-09T19:04:51.499Z,44.98
2023-05-09T19:07:18.516Z,46.22
2023-05-09T19:09:45.833Z,46.22
2023-05-09T19:12:12.472Z,46.51
2023-05-09T19:14:39.067Z,46.17
2023-05-09T19:17:05.981Z,46.24
2023-05-09T19:19:33.104Z,46.44
2023-05-09T19:22:01.813Z,46.51
2023-05-09T19:24:28.499Z,46.40
2023-05-09T19:26:55.359Z,46.76
2023-05-09T19:29:22.015Z,47.01
2023-05-09T19:31:48.638Z,47.21
2023-05-09T19:34:15.413Z,47.01
2023-05-09T19:36:41.988Z,48.19
2023-05-09T19:39:09.165Z,47.59
2023-05-09T19:41:35.972Z,47.24
2023-05-09T19:44:02.789Z,47.67
2023-05-09T19:46:29.883Z,48.50
2023-05-09T19:48:56.796Z,48.36
2023-05-09T19:51:23.488Z,48.41
2023-05-09T19:53:53.081Z,48.94
2023-05-09T19:56:23.243Z,49.80
2023-05-09T19:58:50.441Z,50.49
2023-05-09T20:01:19.174Z,50.49
2023-05-09T20:03:52.878Z,51.45
2023-05-09T20:06:19.740Z,51.85
2023-05-09T20:08:47.722Z,52.18
2023-05-09T20:11:14.985Z,52.84
2023-05-09T20:13:43.175Z,52.49
2023-05-09T20:16:10.046Z,52.93
2023-05-09T20:18:36.916Z,52.31
2023-05-09T20:21:04.191Z,52.83
2023-05-09T20:23:31.465Z,53.04
2023-05-09T20:25:58.358Z,52.99
2023-05-09T20:28:25.479Z,54.01
2023-05-09T20:30:52.186Z,54.46
2023-05-09T20:33:19.278Z,54.91
2023-05-09T20:35:45.983Z,55.19
2023-05-09T20:38:12.663Z,55.56
2023-05-09T20:40:40.412Z,56.52
2023-05-09T20:43:07.141Z,56.36
2023-05-09T20:45:37.499Z,57.09
2023-05-09T20:48:05.828Z,56.75
2023-05-09T20:50:32.588Z,57.21
2023-05-09T20:52:59.418Z,57.71
2023-05-09T20:55:26.018Z,57.51
2023-05-09T20:57:52.958Z,57.51
2023-05-09T21:00:21.383Z,57.74
2023-05-09T21:02:48.481Z,58.28
2023-05-09T21:05:16.723Z,57.78
2023-05-09T21:07:43.973Z,58.54
2023-05-09T21:10:12.059Z,58.79
2023-05-09T21:12:38.894Z,58.63
2023-05-09T21:15:08.575Z,59.07
2023-05-09T21:17:35.542Z,59.86
2023-05-09T21:20:04.554Z,59.84
2023-05-09T21:22:34.434Z,59.86
2023-05-09T21:25:01.251Z,59.97
2023-05-09T21:27:30.341Z,60.08
2023-05-09T21:29:57.462Z,60.70
2023-05-09T21:32:24.166Z,60.72
2023-05-09T21:34:51.089Z,61.11
2023-05-09T21:37:17.664Z,61.09
2023-05-09T21:39:45.258Z,61.51
2023-05-09T21:42:12.471Z,63.69
2023-05-09T21:44:39.056Z,63.92
2023-05-09T21:47:05.913Z,61.17
2023-05-09T21:49:32.715Z,57.75
2023-05-09T21:52:02.267Z,56.27
2023-05-09T21:54:28.917Z,57.15
2023-05-09T21:56:55.445Z,58.04
2023-05-09T21:59:22.401Z,58.45
2023-05-09T22:01:49.420Z,59.37
2023-05-09T22:04:16.298Z,59.97
2023-05-09T22:06:43.003Z,60.11
2023-05-09T22:09:10.649Z,60.21
2023-05-09T22:11:37.816Z,60.36
2023-05-09T22:14:04.584Z,60.58
2023-05-09T22:16:31.436Z,61.17
2023-05-09T22:18:58.492Z,61.16
2023-05-09T22:21:25.527Z,63.34
2023-05-09T22:23:52.210Z,64.47
2023-05-09T22:26:18.836Z,62.32
2023-05-09T22:28:45.554Z,58.62
2023-05-09T22:31:12.313Z,56.85
2023-05-09T22:33:38.834Z,57.21
2023-05-09T22:36:06.898Z,58.09
2023-05-09T22:38:33.570Z,58.86
2023-05-09T22:41:00.245Z,59.61
2023-05-09T22:43:28.928Z,60.21
2023-05-09T22:46:03.684Z,60.95
2023-05-09T22:48:30.317Z,61.29
2023-05-09T22:50:56.923Z,61.60
2023-05-09T22:53:23.687Z,63.76
2023-05-09T22:55:51.384Z,64.02
2023-05-09T22:58:18.666Z,61.23
2023-05-09T23:00:45.303Z,58.09
2023-05-09T23:03:12.015Z,56.94
2023-05-09T23:05:38.772Z,57.59
2023-05-09T23:08:05.463Z,58.73
2023-05-09T23:10:33.788Z,59.05
2023-05-09T23:13:00.476Z,59.53
2023-05-09T23:15:27.177Z,59.83
2023-05-09T23:17:53.719Z,60.69
2023-05-09T23:20:20.437Z,60.96
2023-05-09T23:22:46.996Z,63.57
2023-05-09T23:25:13.515Z,64.49
2023-05-09T23:27:40.827Z,62.38
2023-05-09T23:30:09.763Z,60.30
2023-05-09T23:32:36.859Z,56.94
2023-05-09T23:35:04.850Z,56.04
2023-05-09T23:37:32.150Z,56.60
2023-05-09T23:39:58.859Z,57.59
2023-05-09T23:42:25.492Z,58.85
2023-05-09T23:44:52.202Z,59.26
2023-05-09T23:47:18.840Z,60.40
2023-05-09T23:49:45.601Z,61.10
2023-05-09T23:52:12.210Z,61.49
2023-05-09T23:54:39.869Z,61.14
2023-05-09T23:57:06.436Z,63.39
2023-05-09T23:59:33.089Z,64.57
